Empire State — WDE9268 — position and weather

sailwx.info

Track history (hours):
 
Tides and Currents Weather Stations Pressure Air Temp Water Temp Dewpoint Dewpoint Depression Visibility Wind Speed Wind Dir Waves Ship Positions

Empire State

Owner: Port Imperial Ferry, Weehawken, NJ. More information available from US FCC via Universal Licensing System and Coast Guard Vessel Documentation Center.

Last reported at 2017-Sep-20 12:51 UTC. Time now 2017-Sep-21 05:12 UTC.
Position N 40°46' W 074°01'.

Length 23 m.

Type: Passenger vessel. MMSI: 367415390.

Date/timePositionNaut miles runAvg speedWind from/ knotsBaromVisibWave heightAir tempDewpointWater temp
2017-Sep-20 12:51N 40°46' W 074°01'0 0.0
2017-Sep-19 11:02N 40°46' W 074°01'0 0.0
2017-Sep-19 11:00N 40°46' W 074°01'2 4.6
2017-Sep-19 10:31N 40°44' W 074°02'0 0.0
2017-Sep-19 10:00N 40°44' W 074°02'0 0.0
2017-Sep-19 09:30N 40°44' W 074°02'0 0.0
2017-Sep-18 23:00N 40°44' W 074°02'1 2.5
2017-Sep-18 22:30N 40°43' W 074°01'1 2.2
2017-Sep-18 22:00N 40°42' W 074°00'2 4.4
2017-Sep-18 21:30N 40°44' W 074°02'2 4.0
2017-Sep-18 21:00N 40°42' W 074°01'1 1.5
2017-Sep-18 20:31N 40°42' W 074°00'2 4.4
2017-Sep-18 20:01N 40°44' W 074°02'2 3.3
2017-Sep-18 19:31N 40°42' W 074°01'2 3.3
2017-Sep-18 19:00N 40°44' W 074°02'0 0.0
2017-Sep-18 13:37N 40°44' W 074°02'0 2.1
2017-Sep-18 13:30N 40°44' W 074°01'0 0.5
2017-Sep-18 13:00N 40°44' W 074°02'2 4.4
2017-Sep-18 12:30N 40°42' W 074°00'1 2.7
2017-Sep-18 12:01N 40°43' W 074°01'1 1.9
2017-Sep-18 11:31N 40°44' W 074°02'2 4.1
2017-Sep-18 11:00N 40°42' W 074°00'1 2.1
2017-Sep-18 10:31N 40°43' W 074°01'1 2.5
2017-Sep-18 10:00N 40°44' W 074°02'0 0.0
2017-Sep-18 09:30N 40°44' W 074°02'0 0.0
2017-Sep-17 23:41N 40°44' W 074°02'212.6
2017-Sep-17 23:30N 40°42' W 074°01'3 6.5
2017-Sep-17 23:00N 40°44' W 073°58'1 1.3
2017-Sep-17 22:30N 40°43' W 073°58'3 5.6
2017-Sep-17 22:01N 40°41' W 074°01'1 2.3
2017-Sep-17 21:31N 40°42' W 073°60'3 5.3
2017-Sep-17 21:00N 40°45' W 073°58'1 2.5
2017-Sep-17 20:30N 40°43' W 073°58'3 5.6
2017-Sep-17 20:00N 40°42' W 074°01'1 1.4
2017-Sep-17 19:31N 40°42' W 074°00'1 1.4
2017-Sep-17 19:00N 40°41' W 074°01'3 5.6
2017-Sep-17 18:31N 40°43' W 073°58'0 0.7
2017-Sep-17 18:01N 40°44' W 073°58'3 6.3
2017-Sep-17 17:30N 40°41' W 074°01'1 1.4
2017-Sep-17 17:00N 40°42' W 074°00'1 1.4
2017-Sep-17 16:30N 40°42' W 074°01'3 5.5
2017-Sep-17 16:00N 40°43' W 073°58'1 1.0
2017-Sep-17 15:30N 40°44' W 073°58'2 3.2
2017-Sep-17 14:43N 40°42' W 074°00'1 2.4
2017-Sep-17 14:30N 40°42' W 074°01'2 4.7
2017-Sep-17 14:00N 40°44' W 074°02'1 1.5
2017-Sep-17 13:30N 40°45' W 074°01'2 0.1
2017-Sep-17 00:19N 40°46' W 074°01'310.1
2017-Sep-17 00:00N 40°43' W 074°01'3 5.1
2017-Sep-16 23:31N 40°43' W 073°58'0 0.6
2017-Sep-16 23:00N 40°44' W 073°58'3 6.1
2017-Sep-16 22:31N 40°41' W 074°01'1 1.5
2017-Sep-16 22:00N 40°42' W 074°00'1 1.5
2017-Sep-16 21:30N 40°42' W 074°01'3 6.1
2017-Sep-16 21:00N 40°44' W 073°58'0 0.9
2017-Sep-16 20:31N 40°43' W 073°58'3 5.5
2017-Sep-16 20:00N 40°41' W 074°01'1 1.5
2017-Sep-16 19:30N 40°42' W 074°00'1 1.0
2017-Sep-16 19:00N 40°42' W 074°01'3 5.3
2017-Sep-16 18:31N 40°43' W 073°58'0 0.9
2017-Sep-16 18:00N 40°44' W 073°58'3 6.5
2017-Sep-16 17:30N 40°41' W 074°01'1 1.5
2017-Sep-16 17:00N 40°42' W 074°00'0 0.5
2017-Sep-16 16:30N 40°42' W 074°00'2 4.7
2017-Sep-16 16:00N 40°43' W 073°58'1 1.2
2017-Sep-16 15:30N 40°44' W 073°58'3 6.5
2017-Sep-16 15:00N 40°41' W 074°01'1 1.5
2017-Sep-16 14:31N 40°42' W 074°00'2 4.2
2017-Sep-16 14:00N 40°44' W 074°02'0 0.0
2017-Sep-16 13:30N 40°44' W 074°02'0 0.0
2017-Sep-15 23:00N 40°44' W 074°02'2 2.2
2017-Sep-15 22:00N 40°42' W 074°00'2 4.4
2017-Sep-15 21:30N 40°44' W 074°02'2 3.7
2017-Sep-15 21:00N 40°42' W 074°01'1 1.5
2017-Sep-15 20:30N 40°42' W 074°00'2 4.4
2017-Sep-15 20:01N 40°44' W 074°02'1 3.0
2017-Sep-15 19:30N 40°43' W 074°01'1 0.3
2017-Sep-15 14:30N 40°44' W 074°02'2 4.7
2017-Sep-15 14:00N 40°46' W 074°01'3 5.1
2017-Sep-15 13:30N 40°44' W 074°01'0 0.6
2017-Sep-15 13:00N 40°44' W 074°02'2 4.1
2017-Sep-15 12:30N 40°42' W 074°00'1 2.5
2017-Sep-15 12:00N 40°43' W 074°02'1 2.0
2017-Sep-15 11:31N 40°44' W 074°02'2 4.1
2017-Sep-15 11:00N 40°42' W 074°00'1 2.4
2017-Sep-15 10:30N 40°43' W 074°02'1 2.4
2017-Sep-15 10:00N 40°44' W 074°02'0 0.0
2017-Sep-15 09:30N 40°44' W 074°02'0 0.0
2017-Sep-14 23:01N 40°44' W 074°02'0 0.0
2017-Sep-14 23:00N 40°44' W 074°02'1 2.9
2017-Sep-14 22:30N 40°43' W 074°01'1 2.0
2017-Sep-14 22:00N 40°42' W 074°00'2 4.4
2017-Sep-14 21:30N 40°44' W 074°02'2 3.7
2017-Sep-14 21:01N 40°42' W 074°01'1 1.5
2017-Sep-14 20:30N 40°42' W 074°00'2 4.4
2017-Sep-14 20:00N 40°44' W 074°02'1 2.7
2017-Sep-14 19:30N 40°43' W 074°01'1 0.2
2017-Sep-14 13:36N 40°44' W 074°02'1 5.5
2017-Sep-14 13:30N 40°44' W 074°01'1 1.1
2017-Sep-14 13:00N 40°44' W 074°02'2 4.3
2017-Sep-14 12:30N 40°42' W 074°00'1 2.6
2017-Sep-14 12:01N 40°43' W 074°01'1 2.1
2017-Sep-14 11:30N 40°44' W 074°01'2 4.1
2017-Sep-14 11:01N 40°42' W 074°00'1 2.0
2017-Sep-14 10:30N 40°43' W 074°01'1 2.6
2017-Sep-14 10:00N 40°44' W 074°02'0 0.0
2017-Sep-14 09:30N 40°44' W 074°02'0 0.0
2017-Sep-13 23:01N 40°44' W 074°02'0 1.4
2017-Sep-13 23:01N 40°44' W 074°02'1 2.9
2017-Sep-13 22:31N 40°43' W 074°01'1 2.0
2017-Sep-13 22:00N 40°42' W 074°00'2 4.4
2017-Sep-13 21:30N 40°44' W 074°02'2 4.2
2017-Sep-13 21:00N 40°42' W 074°01'1 1.4
2017-Sep-13 20:31N 40°42' W 074°00'2 4.4
2017-Sep-13 20:00N 40°44' W 074°02'1 2.7
2017-Sep-13 19:31N 40°43' W 074°01'1 0.3
2017-Sep-13 14:45N 40°44' W 074°02'0 0.7
2017-Sep-13 14:30N 40°44' W 074°01'2 4.3
2017-Sep-13 14:00N 40°46' W 074°01'2 4.4
2017-Sep-13 13:31N 40°44' W 074°01'0 0.5
2017-Sep-13 13:00N 40°44' W 074°02'2 4.1
2017-Sep-13 12:30N 40°42' W 074°00'1 2.5
2017-Sep-13 12:00N 40°43' W 074°02'1 1.9
2017-Sep-13 11:31N 40°44' W 074°02'2 4.2
2017-Sep-13 11:00N 40°42' W 074°00'1 2.2
2017-Sep-13 10:30N 40°43' W 074°02'1 2.5
2017-Sep-13 10:01N 40°44' W 074°02'0 0.0
2017-Sep-13 09:30N 40°44' W 074°02'0 0.0
2017-Sep-12 23:01N 40°44' W 074°02'0 1.4
2017-Sep-12 23:00N 40°44' W 074°02'1 2.9
2017-Sep-12 22:30N 40°43' W 074°01'1 2.0
2017-Sep-12 22:01N 40°42' W 074°00'2 4.4
2017-Sep-12 21:30N 40°44' W 074°02'2 4.5
2017-Sep-12 21:00N 40°42' W 074°01'1 1.3
2017-Sep-12 20:30N 40°42' W 074°00'2 4.4
2017-Sep-12 20:00N 40°44' W 074°02'1 2.7
2017-Sep-12 19:30N 40°43' W 074°01'1 0.2
2017-Sep-12 13:35N 40°44' W 074°02'1 8.1
2017-Sep-12 13:31N 40°43' W 074°01'1 1.2
2017-Sep-12 13:00N 40°44' W 074°02'2 4.2
2017-Sep-12 12:31N 40°42' W 074°00'1 2.3
2017-Sep-12 12:01N 40°43' W 074°02'1 2.3
2017-Sep-12 11:30N 40°44' W 074°02'2 4.1
2017-Sep-12 11:00N 40°42' W 074°00'1 2.3
2017-Sep-12 10:30N 40°43' W 074°01'1 2.3
2017-Sep-12 10:01N 40°44' W 074°02'0 0.0
2017-Sep-12 09:31N 40°44' W 074°02'0 0.0
2017-Sep-11 23:02N 40°44' W 074°02'0 0.4
2017-Sep-11 23:00N 40°44' W 074°02'2 3.1
2017-Sep-11 22:31N 40°43' W 074°01'1 1.8
2017-Sep-11 22:01N 40°42' W 074°00'2 4.4
2017-Sep-11 21:30N 40°44' W 074°02'2 4.4
2017-Sep-11 21:00N 40°42' W 074°01'1 1.4
2017-Sep-11 20:30N 40°42' W 074°00'2 4.4
2017-Sep-11 20:00N 40°44' W 074°02'2 3.1
2017-Sep-11 19:31N 40°43' W 074°01'2 0.3
2017-Sep-11 14:35N 40°44' W 074°02'110.9
2017-Sep-11 14:30N 40°43' W 074°01'3 6.0
2017-Sep-11 14:00N 40°46' W 074°01'2 4.9
2017-Sep-11 13:31N 40°44' W 074°01'0 0.4
2017-Sep-11 13:00N 40°44' W 074°02'2 4.2
2017-Sep-11 12:30N 40°42' W 074°00'1 2.2
2017-Sep-11 12:01N 40°43' W 074°02'1 2.5
2017-Sep-11 11:31N 40°44' W 074°02'2 4.2
2017-Sep-11 11:00N 40°42' W 074°00'1 2.2
2017-Sep-11 10:30N 40°43' W 074°02'1 2.6
2017-Sep-11 10:00N 40°44' W 074°02'0 0.0
2017-Sep-11 00:08N 40°44' W 074°02'1 6.0
2017-Sep-11 00:00N 40°43' W 074°02'3 5.5
2017-Sep-10 23:31N 40°43' W 073°58'0 0.2
2017-Sep-10 23:00N 40°43' W 073°58'3 5.7
2017-Sep-10 22:30N 40°41' W 074°01'1 1.5
2017-Sep-10 22:00N 40°42' W 074°00'0 0.6
2017-Sep-10 21:30N 40°42' W 074°00'3 4.9
2017-Sep-10 21:00N 40°44' W 073°58'1 1.6
2017-Sep-10 20:30N 40°43' W 073°58'3 5.3
2017-Sep-10 20:00N 40°41' W 074°01'1 1.4
2017-Sep-10 19:30N 40°42' W 074°00'1 1.3
2017-Sep-10 19:00N 40°42' W 074°01'3 5.6
2017-Sep-10 18:30N 40°43' W 073°58'0 0.7
2017-Sep-10 18:00N 40°44' W 073°58'3 6.3
2017-Sep-10 17:30N 40°41' W 074°01'1 1.5
2017-Sep-10 17:01N 40°42' W 074°00'1 1.4
2017-Sep-10 16:30N 40°41' W 074°01'3 5.7
2017-Sep-10 16:01N 40°43' W 073°58'0 0.9
2017-Sep-10 15:30N 40°44' W 073°58'3 6.4
2017-Sep-10 15:00N 40°42' W 074°01'3 2.7
2017-Sep-10 14:00N 40°44' W 074°02'2 3.0
2017-Sep-10 13:30N 40°45' W 074°01'  
Track history (hours):
 
Tides and Currents Weather Stations Pressure Air Temp Water Temp Dewpoint Dewpoint Depression Visibility Wind Speed Wind Dir Waves Ship Positions

Empire State

Owner: Port Imperial Ferry, Weehawken, NJ. More information available from US FCC via Universal Licensing System and Coast Guard Vessel Documentation Center.

Last reported at 2017-Sep-20 12:51 UTC. Time now 2017-Sep-21 05:12 UTC.
Position N 40°46' W 074°01'.

Length 23 m.

Type: Passenger vessel. MMSI: 367415390.

Date/timePositionNaut miles runAvg speedWind from/ knotsBaromVisibWave heightAir tempDewpointWater temp
2017-Sep-20 12:51N 40°46' W 074°01'0 0.0
2017-Sep-19 11:02N 40°46' W 074°01'0 0.0
2017-Sep-19 11:00N 40°46' W 074°01'2 4.6
2017-Sep-19 10:31N 40°44' W 074°02'0 0.0
2017-Sep-19 10:00N 40°44' W 074°02'0 0.0
2017-Sep-19 09:30N 40°44' W 074°02'0 0.0
2017-Sep-18 23:00N 40°44' W 074°02'1 2.5
2017-Sep-18 22:30N 40°43' W 074°01'1 2.2
2017-Sep-18 22:00N 40°42' W 074°00'2 4.4
2017-Sep-18 21:30N 40°44' W 074°02'2 4.0
2017-Sep-18 21:00N 40°42' W 074°01'1 1.5
2017-Sep-18 20:31N 40°42' W 074°00'2 4.4
2017-Sep-18 20:01N 40°44' W 074°02'2 3.3
2017-Sep-18 19:31N 40°42' W 074°01'2 3.3
2017-Sep-18 19:00N 40°44' W 074°02'0 0.0
2017-Sep-18 13:37N 40°44' W 074°02'0 2.1
2017-Sep-18 13:30N 40°44' W 074°01'0 0.5
2017-Sep-18 13:00N 40°44' W 074°02'2 4.4
2017-Sep-18 12:30N 40°42' W 074°00'1 2.7
2017-Sep-18 12:01N 40°43' W 074°01'1 1.9
2017-Sep-18 11:31N 40°44' W 074°02'2 4.1
2017-Sep-18 11:00N 40°42' W 074°00'1 2.1
2017-Sep-18 10:31N 40°43' W 074°01'1 2.5
2017-Sep-18 10:00N 40°44' W 074°02'0 0.0
2017-Sep-18 09:30N 40°44' W 074°02'0 0.0
2017-Sep-17 23:41N 40°44' W 074°02'212.6
2017-Sep-17 23:30N 40°42' W 074°01'3 6.5
2017-Sep-17 23:00N 40°44' W 073°58'1 1.3
2017-Sep-17 22:30N 40°43' W 073°58'3 5.6
2017-Sep-17 22:01N 40°41' W 074°01'1 2.3
2017-Sep-17 21:31N 40°42' W 073°60'3 5.3
2017-Sep-17 21:00N 40°45' W 073°58'1 2.5
2017-Sep-17 20:30N 40°43' W 073°58'3 5.6
2017-Sep-17 20:00N 40°42' W 074°01'1 1.4
2017-Sep-17 19:31N 40°42' W 074°00'1 1.4
2017-Sep-17 19:00N 40°41' W 074°01'3 5.6
2017-Sep-17 18:31N 40°43' W 073°58'0 0.7
2017-Sep-17 18:01N 40°44' W 073°58'3 6.3
2017-Sep-17 17:30N 40°41' W 074°01'1 1.4
2017-Sep-17 17:00N 40°42' W 074°00'1 1.4
2017-Sep-17 16:30N 40°42' W 074°01'3 5.5
2017-Sep-17 16:00N 40°43' W 073°58'1 1.0
2017-Sep-17 15:30N 40°44' W 073°58'2 3.2
2017-Sep-17 14:43N 40°42' W 074°00'1 2.4
2017-Sep-17 14:30N 40°42' W 074°01'2 4.7
2017-Sep-17 14:00N 40°44' W 074°02'1 1.5
2017-Sep-17 13:30N 40°45' W 074°01'2 0.1
2017-Sep-17 00:19N 40°46' W 074°01'310.1
2017-Sep-17 00:00N 40°43' W 074°01'3 5.1
2017-Sep-16 23:31N 40°43' W 073°58'0 0.6
2017-Sep-16 23:00N 40°44' W 073°58'3 6.1
2017-Sep-16 22:31N 40°41' W 074°01'1 1.5
2017-Sep-16 22:00N 40°42' W 074°00'1 1.5
2017-Sep-16 21:30N 40°42' W 074°01'3 6.1
2017-Sep-16 21:00N 40°44' W 073°58'0 0.9
2017-Sep-16 20:31N 40°43' W 073°58'3 5.5
2017-Sep-16 20:00N 40°41' W 074°01'1 1.5
2017-Sep-16 19:30N 40°42' W 074°00'1 1.0
2017-Sep-16 19:00N 40°42' W 074°01'3 5.3
2017-Sep-16 18:31N 40°43' W 073°58'0 0.9
2017-Sep-16 18:00N 40°44' W 073°58'3 6.5
2017-Sep-16 17:30N 40°41' W 074°01'1 1.5
2017-Sep-16 17:00N 40°42' W 074°00'0 0.5
2017-Sep-16 16:30N 40°42' W 074°00'2 4.7
2017-Sep-16 16:00N 40°43' W 073°58'1 1.2
2017-Sep-16 15:30N 40°44' W 073°58'3 6.5
2017-Sep-16 15:00N 40°41' W 074°01'1 1.5
2017-Sep-16 14:31N 40°42' W 074°00'2 4.2
2017-Sep-16 14:00N 40°44' W 074°02'0 0.0
2017-Sep-16 13:30N 40°44' W 074°02'0 0.0
2017-Sep-15 23:00N 40°44' W 074°02'2 2.2
2017-Sep-15 22:00N 40°42' W 074°00'2 4.4
2017-Sep-15 21:30N 40°44' W 074°02'2 3.7
2017-Sep-15 21:00N 40°42' W 074°01'1 1.5
2017-Sep-15 20:30N 40°42' W 074°00'2 4.4
2017-Sep-15 20:01N 40°44' W 074°02'1 3.0
2017-Sep-15 19:30N 40°43' W 074°01'1 0.3
2017-Sep-15 14:30N 40°44' W 074°02'2 4.7
2017-Sep-15 14:00N 40°46' W 074°01'3 5.1
2017-Sep-15 13:30N 40°44' W 074°01'0 0.6
2017-Sep-15 13:00N 40°44' W 074°02'2 4.1
2017-Sep-15 12:30N 40°42' W 074°00'1 2.5
2017-Sep-15 12:00N 40°43' W 074°02'1 2.0
2017-Sep-15 11:31N 40°44' W 074°02'2 4.1
2017-Sep-15 11:00N 40°42' W 074°00'1 2.4
2017-Sep-15 10:30N 40°43' W 074°02'1 2.4
2017-Sep-15 10:00N 40°44' W 074°02'0 0.0
2017-Sep-15 09:30N 40°44' W 074°02'0 0.0
2017-Sep-14 23:01N 40°44' W 074°02'0 0.0
2017-Sep-14 23:00N 40°44' W 074°02'1 2.9
2017-Sep-14 22:30N 40°43' W 074°01'1 2.0
2017-Sep-14 22:00N 40°42' W 074°00'2 4.4
2017-Sep-14 21:30N 40°44' W 074°02'2 3.7
2017-Sep-14 21:01N 40°42' W 074°01'1 1.5
2017-Sep-14 20:30N 40°42' W 074°00'2 4.4
2017-Sep-14 20:00N 40°44' W 074°02'1 2.7
2017-Sep-14 19:30N 40°43' W 074°01'1 0.2
2017-Sep-14 13:36N 40°44' W 074°02'1 5.5
2017-Sep-14 13:30N 40°44' W 074°01'1 1.1
2017-Sep-14 13:00N 40°44' W 074°02'2 4.3
2017-Sep-14 12:30N 40°42' W 074°00'1 2.6
2017-Sep-14 12:01N 40°43' W 074°01'1 2.1
2017-Sep-14 11:30N 40°44' W 074°01'2 4.1
2017-Sep-14 11:01N 40°42' W 074°00'1 2.0
2017-Sep-14 10:30N 40°43' W 074°01'1 2.6
2017-Sep-14 10:00N 40°44' W 074°02'0 0.0
2017-Sep-14 09:30N 40°44' W 074°02'0 0.0
2017-Sep-13 23:01N 40°44' W 074°02'0 1.4
2017-Sep-13 23:01N 40°44' W 074°02'1 2.9
2017-Sep-13 22:31N 40°43' W 074°01'1 2.0
2017-Sep-13 22:00N 40°42' W 074°00'2 4.4
2017-Sep-13 21:30N 40°44' W 074°02'2 4.2
2017-Sep-13 21:00N 40°42' W 074°01'1 1.4
2017-Sep-13 20:31N 40°42' W 074°00'2 4.4
2017-Sep-13 20:00N 40°44' W 074°02'1 2.7
2017-Sep-13 19:31N 40°43' W 074°01'1 0.3
2017-Sep-13 14:45N 40°44' W 074°02'0 0.7
2017-Sep-13 14:30N 40°44' W 074°01'2 4.3
2017-Sep-13 14:00N 40°46' W 074°01'2 4.4
2017-Sep-13 13:31N 40°44' W 074°01'0 0.5
2017-Sep-13 13:00N 40°44' W 074°02'2 4.1
2017-Sep-13 12:30N 40°42' W 074°00'1 2.5
2017-Sep-13 12:00N 40°43' W 074°02'1 1.9
2017-Sep-13 11:31N 40°44' W 074°02'2 4.2
2017-Sep-13 11:00N 40°42' W 074°00'1 2.2
2017-Sep-13 10:30N 40°43' W 074°02'1 2.5
2017-Sep-13 10:01N 40°44' W 074°02'0 0.0
2017-Sep-13 09:30N 40°44' W 074°02'0 0.0
2017-Sep-12 23:01N 40°44' W 074°02'0 1.4
2017-Sep-12 23:00N 40°44' W 074°02'1 2.9
2017-Sep-12 22:30N 40°43' W 074°01'1 2.0
2017-Sep-12 22:01N 40°42' W 074°00'2 4.4
2017-Sep-12 21:30N 40°44' W 074°02'2 4.5
2017-Sep-12 21:00N 40°42' W 074°01'1 1.3
2017-Sep-12 20:30N 40°42' W 074°00'2 4.4
2017-Sep-12 20:00N 40°44' W 074°02'1 2.7
2017-Sep-12 19:30N 40°43' W 074°01'1 0.2
2017-Sep-12 13:35N 40°44' W 074°02'1 8.1
2017-Sep-12 13:31N 40°43' W 074°01'1 1.2
2017-Sep-12 13:00N 40°44' W 074°02'2 4.2
2017-Sep-12 12:31N 40°42' W 074°00'1 2.3
2017-Sep-12 12:01N 40°43' W 074°02'1 2.3
2017-Sep-12 11:30N 40°44' W 074°02'2 4.1
2017-Sep-12 11:00N 40°42' W 074°00'1 2.3
2017-Sep-12 10:30N 40°43' W 074°01'1 2.3
2017-Sep-12 10:01N 40°44' W 074°02'0 0.0
2017-Sep-12 09:31N 40°44' W 074°02'0 0.0
2017-Sep-11 23:02N 40°44' W 074°02'0 0.4
2017-Sep-11 23:00N 40°44' W 074°02'2 3.1
2017-Sep-11 22:31N 40°43' W 074°01'1 1.8
2017-Sep-11 22:01N 40°42' W 074°00'2 4.4
2017-Sep-11 21:30N 40°44' W 074°02'2 4.4
2017-Sep-11 21:00N 40°42' W 074°01'1 1.4
2017-Sep-11 20:30N 40°42' W 074°00'2 4.4
2017-Sep-11 20:00N 40°44' W 074°02'2 3.1
2017-Sep-11 19:31N 40°43' W 074°01'2 0.3
2017-Sep-11 14:35N 40°44' W 074°02'110.9
2017-Sep-11 14:30N 40°43' W 074°01'3 6.0
2017-Sep-11 14:00N 40°46' W 074°01'2 4.9
2017-Sep-11 13:31N 40°44' W 074°01'0 0.4
2017-Sep-11 13:00N 40°44' W 074°02'2 4.2
2017-Sep-11 12:30N 40°42' W 074°00'1 2.2
2017-Sep-11 12:01N 40°43' W 074°02'1 2.5
2017-Sep-11 11:31N 40°44' W 074°02'2 4.2
2017-Sep-11 11:00N 40°42' W 074°00'1 2.2
2017-Sep-11 10:30N 40°43' W 074°02'1 2.6
2017-Sep-11 10:00N 40°44' W 074°02'0 0.0
2017-Sep-11 00:08N 40°44' W 074°02'1 6.0
2017-Sep-11 00:00N 40°43' W 074°02'3 5.5
2017-Sep-10 23:31N 40°43' W 073°58'0 0.2
2017-Sep-10 23:00N 40°43' W 073°58'3 5.7
2017-Sep-10 22:30N 40°41' W 074°01'1 1.5
2017-Sep-10 22:00N 40°42' W 074°00'0 0.6
2017-Sep-10 21:30N 40°42' W 074°00'3 4.9
2017-Sep-10 21:00N 40°44' W 073°58'1 1.6
2017-Sep-10 20:30N 40°43' W 073°58'3 5.3
2017-Sep-10 20:00N 40°41' W 074°01'1 1.4
2017-Sep-10 19:30N 40°42' W 074°00'1 1.3
2017-Sep-10 19:00N 40°42' W 074°01'3 5.6
2017-Sep-10 18:30N 40°43' W 073°58'0 0.7
2017-Sep-10 18:00N 40°44' W 073°58'3 6.3
2017-Sep-10 17:30N 40°41' W 074°01'1 1.5
2017-Sep-10 17:01N 40°42' W 074°00'1 1.4
2017-Sep-10 16:30N 40°41' W 074°01'3 5.7
2017-Sep-10 16:01N 40°43' W 073°58'0 0.9
2017-Sep-10 15:30N 40°44' W 073°58'3 6.4
2017-Sep-10 15:00N 40°42' W 074°01'3 2.7
2017-Sep-10 14:00N 40°44' W 074°02'2 3.0
2017-Sep-10 13:30N 40°45' W 074°01'  

Dump ship's entire track history